Time;durP1;ratioP1;P1;durP2;ratioP2;P2;SDS_P1;SDS_P2;PMS_P1;PMS_P2;Temp;Humidity;BMP_temperature;BMP_pressure;BME280_temperature;BME280_humidity;BME280_pressure;Samples;Min_cycle;Max_cycle;Signal;HPM_P1;HPM_P2
2023/03/01 00:01:33;;;;;;;;;;;;;;;2.15;59.81;93050.00;2057072;69;20566;-74
2023/03/01 00:03:59;;;;;;;;;;;;;;;2.14;59.50;93045.75;2057220;69;20054;-76
2023/03/01 00:06:25;;;;;;;;;;;;;;;2.06;59.68;93053.31;2057226;69;20094;-75
2023/03/01 00:08:50;;;;;;;;;;;;;;;2.02;60.33;93053.66;2056187;69;20086;-75
2023/03/01 00:11:24;;;;;;;;;;;;;;;2.00;59.88;93047.91;2056740;69;20046;-75
2023/03/01 00:13:51;;;;;;;;;;;;;;;1.90;60.46;93048.97;2057356;69;20042;-77
2023/03/01 00:16:18;;;;;;;;;;;;;;;1.96;59.99;93052.31;2056539;69;20046;-81
2023/03/01 00:18:43;;;;;;;;;;;;;;;1.78;60.48;93052.03;2057012;69;20046;-76
2023/03/01 00:21:10;;;;;;;;;;;;;;;1.95;59.75;93046.03;2056997;69;20415;-76
2023/03/01 00:23:35;;;;;;;;;;;;;;;2.13;59.33;93049.09;2057321;69;20161;-76
2023/03/01 00:26:01;;;;;;;;;;;;;;;2.11;59.66;93038.53;2057013;69;20570;-75
2023/03/01 00:28:27;;;;;;;;;;;;;;;2.09;59.78;93041.09;2057469;69;20050;-81
2023/03/01 00:30:53;;;;;;;;;;;;;;;2.19;59.58;93042.06;2058985;69;20045;-75
2023/03/01 00:33:18;;;;;;;;;;;;;;;2.15;59.44;93041.69;2058726;69;20395;-80
2023/03/01 00:35:44;;;;;;;;;;;;;;;2.10;60.11;93031.47;2055986;69;20058;-77
2023/03/01 00:38:10;;;;;;;;;;;;;;;1.93;60.48;93040.28;2054902;69;20062;-75
2023/03/01 00:40:36;;;;;;;;;;;;;;;2.02;60.19;93034.22;2053727;70;20474;-77
2023/03/01 00:43:02;;;;;;;;;;;;;;;1.92;60.12;93035.25;2054301;70;20430;-80
2023/03/01 00:45:27;;;;;;;;;;;;;;;1.97;60.47;93037.13;2057125;69;20057;-76
2023/03/01 00:47:53;;;;;;;;;;;;;;;2.00;60.71;93036.78;2057164;69;20070;-77
2023/03/01 00:50:19;;;;;;;;;;;;;;;2.16;59.07;93036.91;2054851;70;20081;-77
2023/03/01 00:52:44;;;;;;;;;;;;;;;1.96;60.06;93027.34;2055422;69;20051;-77
2023/03/01 00:55:11;;;;;;;;;;;;;;;1.93;60.39;93025.66;2054823;69;20149;-76
2023/03/01 00:57:36;;;;;;;;;;;;;;;2.12;60.04;93020.56;2054346;70;20136;-76
2023/03/01 01:00:04;;;;;;;;;;;;;;;1.88;61.26;93018.97;2054732;69;20062;-78
2023/03/01 01:02:29;;;;;;;;;;;;;;;1.94;60.85;93014.00;2054943;69;20442;-79
2023/03/01 01:04:54;;;;;;;;;;;;;;;2.06;60.33;93016.44;2053866;69;20054;-79
2023/03/01 01:07:24;;;;;;;;;;;;;;;1.78;61.94;93010.38;2054356;69;20426;-76
2023/03/01 01:09:50;;;;;;;;;;;;;;;1.94;61.06;92999.38;2054262;70;20059;-78
2023/03/01 01:12:16;;;;;;;;;;;;;;;1.83;61.40;93003.19;2054285;70;20046;-78
2023/03/01 01:14:41;;;;;;;;;;;;;;;1.81;61.17;92993.94;2054844;69;20111;-77
2023/03/01 01:17:06;;;;;;;;;;;;;;;2.07;60.33;92996.47;2054797;69;20043;-77
2023/03/01 01:19:32;;;;;;;;;;;;;;;1.95;60.39;92993.28;2054736;69;20106;-75
2023/03/01 01:21:57;;;;;;;;;;;;;;;1.80;61.15;92995.97;2054766;69;20061;-77
2023/03/01 01:24:23;;;;;;;;;;;;;;;1.79;61.59;92988.94;2054961;69;20089;-77
2023/03/01 01:26:49;;;;;;;;;;;;;;;1.98;60.97;92991.44;2053037;70;20047;-74
2023/03/01 01:29:14;;;;;;;;;;;;;;;1.84;60.97;92984.53;2053833;70;20146;-76
2023/03/01 01:31:41;;;;;;;;;;;;;;;1.91;60.98;92981.78;2051281;70;20062;-75
2023/03/01 01:34:07;;;;;;;;;;;;;;;1.93;61.17;92972.91;2053508;69;20129;-75
2023/03/01 01:36:34;;;;;;;;;;;;;;;2.04;60.28;92964.97;2056894;69;20532;-76
2023/03/01 01:39:00;;;;;;;;;;;;;;;2.08;59.80;92961.13;2057225;69;20050;-76
2023/03/01 01:41:26;;;;;;;;;;;;;;;1.94;60.34;92972.34;2057188;69;20143;-78
2023/03/01 01:44:30;;;;;;;;;;;;;;;1.99;60.63;92971.44;2057855;69;20065;-76
2023/03/01 01:47:05;;;;;;;;;;;;;;;2.00;60.54;92966.63;2053919;70;20082;-77
2023/03/01 01:49:33;;;;;;;;;;;;;;;2.12;59.63;92964.28;2053917;70;20437;-78
2023/03/01 01:52:20;;;;;;;;;;;;;;;1.94;60.48;92961.25;2051258;70;20133;-77
2023/03/01 01:54:56;;;;;;;;;;;;;;;2.17;60.08;92960.59;2054055;69;20062;-77
2023/03/01 01:57:23;;;;;;;;;;;;;;;2.16;60.12;92956.34;2053850;70;20043;-77
2023/03/01 01:59:52;;;;;;;;;;;;;;;2.22;59.81;92954.13;2050965;70;20042;-78
2023/03/01 02:02:17;;;;;;;;;;;;;;;1.97;60.47;92948.28;2047726;70;20055;-77
2023/03/01 02:04:43;;;;;;;;;;;;;;;2.02;60.59;92948.16;2050823;70;20078;-77
2023/03/01 02:07:16;;;;;;;;;;;;;;;2.24;59.54;92938.38;2050713;70;20046;-73
2023/03/01 02:09:49;;;;;;;;;;;;;;;2.22;59.45;92938.19;2050317;70;20102;-75
2023/03/01 02:12:17;;;;;;;;;;;;;;;2.29;59.41;92937.50;2047057;70;20063;-77
2023/03/01 02:14:42;;;;;;;;;;;;;;;2.15;59.82;92930.56;2050336;70;20129;-77
2023/03/01 02:17:09;;;;;;;;;;;;;;;2.17;59.60;92928.00;2049701;69;20110;-77
2023/03/01 02:19:44;;;;;;;;;;;;;;;2.07;60.16;92927.06;2057797;69;20046;-77
2023/03/01 02:22:23;;;;;;;;;;;;;;;1.71;62.00;92918.75;2057418;69;20200;-77
2023/03/01 02:24:54;;;;;;;;;;;;;;;1.63;62.42;92921.50;2057729;69;20053;-76
2023/03/01 02:27:21;;;;;;;;;;;;;;;1.87;61.48;92909.19;2057735;69;20062;-77
2023/03/01 02:29:48;;;;;;;;;;;;;;;2.00;60.79;92916.66;2057298;69;20090;-77
2023/03/01 02:32:15;;;;;;;;;;;;;;;1.83;60.68;92911.56;2057326;69;20152;-76
2023/03/01 02:34:41;;;;;;;;;;;;;;;1.85;60.96;92924.94;2057220;69;20061;-77
2023/03/01 02:37:14;;;;;;;;;;;;;;;1.92;61.44;92922.16;2057743;69;20042;-74
2023/03/01 02:39:42;;;;;;;;;;;;;;;1.95;61.23;92921.06;2057783;69;20135;-75
2023/03/01 02:42:10;;;;;;;;;;;;;;;2.01;60.36;92929.25;2057368;69;20204;-78
2023/03/01 02:44:36;;;;;;;;;;;;;;;1.93;60.71;92915.34;2056978;69;20058;-77
2023/03/01 02:47:03;;;;;;;;;;;;;;;1.94;61.21;92910.53;2056874;69;20038;-77
2023/03/01 02:49:30;;;;;;;;;;;;;;;1.84;60.94;92904.75;2057096;69;20050;-77
2023/03/01 02:52:14;;;;;;;;;;;;;;;2.00;60.61;92902.75;2057346;69;20546;-76
2023/03/01 02:54:43;;;;;;;;;;;;;;;2.11;60.49;92904.47;2057618;69;20145;-78
2023/03/01 02:57:09;;;;;;;;;;;;;;;2.06;61.31;92902.59;2057096;69;20050;-77
2023/03/01 02:59:39;;;;;;;;;;;;;;;2.07;61.08;92893.00;2057208;69;20047;-77
2023/03/01 03:02:07;;;;;;;;;;;;;;;2.14;60.83;92898.53;2057663;69;20061;-77
2023/03/01 03:04:32;;;;;;;;;;;;;;;2.02;61.16;92889.81;2057524;69;20046;-76
2023/03/01 03:06:58;;;;;;;;;;;;;;;2.04;60.99;92892.78;2057442;69;20054;-76
2023/03/01 03:09:24;;;;;;;;;;;;;;;2.18;60.29;92898.94;2058165;69;20487;-76
2023/03/01 03:11:50;;;;;;;;;;;;;;;2.14;60.59;92893.00;2058307;69;20094;-75
2023/03/01 03:14:16;;;;;;;;;;;;;;;2.05;61.21;92890.75;2058171;69;20145;-75
2023/03/01 03:16:46;;;;;;;;;;;;;;;1.99;61.48;92887.41;2058331;69;20057;-77
2023/03/01 03:19:11;;;;;;;;;;;;;;;1.92;61.38;92890.88;2055463;69;20144;-76
2023/03/01 03:21:38;;;;;;;;;;;;;;;1.99;61.30;92892.97;2058109;69;20052;-75
2023/03/01 03:24:04;;;;;;;;;;;;;;;2.04;61.37;92878.91;2058467;69;20058;-76
2023/03/01 03:26:30;;;;;;;;;;;;;;;2.09;61.23;92887.63;2058389;69;20427;-77
2023/03/01 03:28:56;;;;;;;;;;;;;;;2.01;61.71;92885.53;2058369;69;20046;-77
2023/03/01 03:31:22;;;;;;;;;;;;;;;2.17;61.09;92891.16;2058523;69;20057;-76
2023/03/01 03:33:47;;;;;;;;;;;;;;;2.17;61.28;92894.69;2058645;69;20038;-77
2023/03/01 03:36:17;;;;;;;;;;;;;;;2.19;60.78;92888.56;2058612;69;20156;-75
2023/03/01 03:38:43;;;;;;;;;;;;;;;2.19;61.06;92896.91;2058523;69;20088;-77
2023/03/01 03:41:09;;;;;;;;;;;;;;;2.22;60.97;92884.69;2058509;69;20050;-76
2023/03/01 03:43:35;;;;;;;;;;;;;;;2.06;60.90;92889.44;2058567;69;20101;-77
2023/03/01 03:46:05;;;;;;;;;;;;;;;1.96;61.81;92886.47;2058660;69;20434;-77
2023/03/01 03:48:34;;;;;;;;;;;;;;;2.16;61.00;92887.63;2058472;69;20053;-76
2023/03/01 03:51:01;;;;;;;;;;;;;;;1.99;61.73;92879.06;2058342;69;20058;-74
2023/03/01 03:53:28;;;;;;;;;;;;;;;1.91;62.54;92878.31;2058215;69;20050;-78
2023/03/01 03:55:53;;;;;;;;;;;;;;;2.03;61.61;92874.66;2057593;69;20078;-77
2023/03/01 03:58:21;;;;;;;;;;;;;;;1.66;63.34;92870.44;2058863;69;20050;-77
2023/03/01 04:00:47;;;;;;;;;;;;;;;1.90;62.31;92868.50;2058094;69;20046;-76
2023/03/01 04:03:13;;;;;;;;;;;;;;;1.60;63.83;92867.06;2058252;69;20054;-77
2023/03/01 04:05:39;;;;;;;;;;;;;;;1.72;62.70;92873.06;2058414;69;20462;-77
2023/03/01 04:08:08;;;;;;;;;;;;;;;1.65;63.80;92868.19;2058391;69;20058;-76
2023/03/01 04:10:38;;;;;;;;;;;;;;;1.68;63.34;92865.06;2058241;69;20081;-77
2023/03/01 04:13:07;;;;;;;;;;;;;;;1.82;62.14;92865.69;2058164;69;20438;-75
2023/03/01 04:15:33;;;;;;;;;;;;;;;1.90;61.89;92863.69;2058358;69;20074;-76
2023/03/01 04:17:59;;;;;;;;;;;;;;;1.77;62.49;92863.81;2057951;69;20092;-76
2023/03/01 04:20:26;;;;;;;;;;;;;;;1.49;62.54;92856.31;2058277;69;20086;-76
2023/03/01 04:23:13;;;;;;;;;;;;;;;1.57;63.31;92850.81;2057671;69;20061;-74
2023/03/01 04:25:58;;;;;;;;;;;;;;;1.64;62.94;92859.13;2058011;69;20403;-77
2023/03/01 04:28:26;;;;;;;;;;;;;;;1.57;63.15;92850.81;2058020;69;20050;-76
2023/03/01 04:30:53;;;;;;;;;;;;;;;1.59;62.89;92853.75;2058200;69;20050;-76
2023/03/01 04:33:18;;;;;;;;;;;;;;;1.74;62.49;92848.25;2057973;69;20563;-75
2023/03/01 04:35:44;;;;;;;;;;;;;;;1.85;61.59;92841.66;2057663;69;20128;-76
2023/03/01 04:38:10;;;;;;;;;;;;;;;1.82;61.67;92845.50;2058060;69;20394;-75
2023/03/01 04:40:36;;;;;;;;;;;;;;;1.67;62.38;92848.97;2057929;69;20060;-76
2023/03/01 04:43:02;;;;;;;;;;;;;;;1.73;61.51;92841.97;2058080;69;20057;-76
2023/03/01 04:45:27;;;;;;;;;;;;;;;1.78;61.27;92843.81;2057948;69;20058;-77
2023/03/01 04:47:53;;;;;;;;;;;;;;;1.62;62.07;92836.03;2057671;69;20070;-77
2023/03/01 04:50:23;;;;;;;;;;;;;;;1.70;61.74;92831.25;2057785;69;20064;-76
2023/03/01 04:52:49;;;;;;;;;;;;;;;1.65;62.34;92832.13;2057383;69;20562;-78
2023/03/01 04:55:14;;;;;;;;;;;;;;;1.81;61.61;92832.94;2058101;69;20148;-78
2023/03/01 04:57:40;;;;;;;;;;;;;;;1.80;61.37;92842.56;2057671;69;20112;-76
2023/03/01 05:00:19;;;;;;;;;;;;;;;1.91;60.97;92847.75;2057954;69;20131;-76
2023/03/01 05:02:46;;;;;;;;;;;;;;;1.59;62.71;92840.63;2057716;69;20058;-77
2023/03/01 05:05:11;;;;;;;;;;;;;;;1.83;61.24;92841.44;2058379;69;20395;-77
2023/03/01 05:07:37;;;;;;;;;;;;;;;1.84;62.16;92843.69;2057680;69;20116;-75
2023/03/01 05:10:02;;;;;;;;;;;;;;;1.77;62.17;92841.63;2058405;69;20485;-75
2023/03/01 05:12:27;;;;;;;;;;;;;;;1.75;62.90;92841.44;2058064;69;20197;-77
2023/03/01 05:14:53;;;;;;;;;;;;;;;1.76;63.06;92831.81;2057318;69;20074;-78
2023/03/01 05:17:18;;;;;;;;;;;;;;;1.86;62.12;92841.09;2058021;69;20053;-77
2023/03/01 05:19:44;;;;;;;;;;;;;;;1.93;61.59;92829.28;2058002;69;20077;-75
2023/03/01 05:22:09;;;;;;;;;;;;;;;1.89;60.88;92826.09;2057422;69;20490;-74
2023/03/01 05:24:35;;;;;;;;;;;;;;;1.91;60.81;92825.53;2058190;69;20057;-74
2023/03/01 05:27:01;;;;;;;;;;;;;;;1.97;60.02;92820.56;2057487;69;21088;-76
2023/03/01 05:29:28;;;;;;;;;;;;;;;1.07;64.60;92825.97;2057903;69;20502;-77
2023/03/01 05:31:58;;;;;;;;;;;;;;;0.97;65.72;92820.19;2057791;69;20593;-76
2023/03/01 05:34:33;;;;;;;;;;;;;;;1.53;63.41;92826.19;2057938;69;20169;-74
2023/03/01 05:36:59;;;;;;;;;;;;;;;1.61;63.12;92829.00;2056192;69;20042;-75
2023/03/01 05:39:26;;;;;;;;;;;;;;;1.63;62.99;92818.06;2058192;69;20138;-77
2023/03/01 05:41:52;;;;;;;;;;;;;;;1.64;62.82;92816.78;2058066;69;20050;-79
2023/03/01 05:44:17;;;;;;;;;;;;;;;1.66;62.94;92823.28;2057648;69;20081;-78
2023/03/01 05:46:43;;;;;;;;;;;;;;;1.64;62.68;92819.56;2058075;69;20113;-79
2023/03/01 05:49:08;;;;;;;;;;;;;;;1.59;62.98;92821.19;2057714;69;20070;-77
2023/03/01 05:51:34;;;;;;;;;;;;;;;1.74;62.23;92818.50;2058227;69;20053;-75
2023/03/01 05:53:59;;;;;;;;;;;;;;;1.61;62.54;92826.22;2058277;69;20053;-78
2023/03/01 05:56:25;;;;;;;;;;;;;;;1.73;62.09;92822.53;2057927;69;20078;-78
2023/03/01 05:58:50;;;;;;;;;;;;;;;1.78;61.74;92816.06;2058461;69;20057;-77
2023/03/01 06:01:15;;;;;;;;;;;;;;;1.71;62.50;92821.63;2058438;69;20082;-77
2023/03/01 06:03:41;;;;;;;;;;;;;;;1.52;63.54;92827.47;2057518;69;20085;-78
2023/03/01 06:06:07;;;;;;;;;;;;;;;1.71;62.94;92824.41;2056650;69;20057;-78
2023/03/01 06:08:32;;;;;;;;;;;;;;;1.35;64.00;92827.94;2058255;69;20112;-82
2023/03/01 06:10:58;;;;;;;;;;;;;;;1.69;63.11;92826.97;2058474;69;20052;-78
2023/03/01 06:13:24;;;;;;;;;;;;;;;1.73;62.18;92832.91;2058295;69;20042;-78
2023/03/01 06:15:49;;;;;;;;;;;;;;;1.69;63.37;92827.69;2058475;69;20474;-78
2023/03/01 06:18:15;;;;;;;;;;;;;;;1.63;63.20;92829.91;2058034;69;20097;-78
2023/03/01 06:20:40;;;;;;;;;;;;;;;1.70;61.96;92828.47;2058426;69;20375;-77
2023/03/01 06:23:06;;;;;;;;;;;;;;;1.21;63.61;92827.34;2057779;69;20513;-77
2023/03/01 06:25:31;;;;;;;;;;;;;;;1.46;63.81;92830.41;2055873;69;20057;-78
2023/03/01 06:27:57;;;;;;;;;;;;;;;1.49;63.37;92837.63;2057535;69;20054;-76
2023/03/01 06:30:24;;;;;;;;;;;;;;;1.25;63.99;92830.50;2057938;69;20062;-77
2023/03/01 06:32:49;;;;;;;;;;;;;;;1.51;63.00;92832.28;2057618;69;20053;-76
2023/03/01 06:35:17;;;;;;;;;;;;;;;1.56;63.54;92835.41;2057845;69;20069;-75
2023/03/01 06:37:43;;;;;;;;;;;;;;;1.34;64.02;92829.25;2058036;69;20050;-77
2023/03/01 06:40:10;;;;;;;;;;;;;;;1.45;63.38;92833.72;2059315;69;20053;-75
2023/03/01 06:42:36;;;;;;;;;;;;;;;1.45;64.44;92836.50;2061472;69;20062;-76
2023/03/01 06:45:02;;;;;;;;;;;;;;;1.74;62.82;92832.38;2061426;69;20046;-76
2023/03/01 06:47:28;;;;;;;;;;;;;;;1.73;63.10;92835.69;2061487;69;20145;-78
2023/03/01 06:49:53;;;;;;;;;;;;;;;1.76;62.69;92846.44;2062516;69;20161;-78
2023/03/01 06:52:18;;;;;;;;;;;;;;;1.65;62.96;92838.44;2062989;69;20097;-78
2023/03/01 06:54:44;;;;;;;;;;;;;;;1.49;64.02;92842.44;2061943;69;20055;-77
2023/03/01 06:57:09;;;;;;;;;;;;;;;1.15;65.50;92837.13;2059361;69;20257;-78
2023/03/01 06:59:35;;;;;;;;;;;;;;;1.56;64.41;92846.53;2058383;69;20050;-77
2023/03/01 07:02:00;;;;;;;;;;;;;;;1.56;64.13;92850.06;2058868;69;20046;-79
2023/03/01 07:04:28;;;;;;;;;;;;;;;1.65;63.79;92846.78;2058777;69;20054;-79
2023/03/01 07:06:55;;;;;;;;;;;;;;;1.76;63.09;92842.91;2058813;69;20446;-81
2023/03/01 07:09:23;;;;;;;;;;;;;;;1.87;62.83;92850.16;2058729;69;20491;-78
2023/03/01 07:11:49;;;;;;;;;;;;;;;1.96;62.50;92846.84;2058660;69;20062;-77
2023/03/01 07:14:14;;;;;;;;;;;;;;;1.93;62.69;92840.38;2058962;69;20084;-76
2023/03/01 07:16:40;;;;;;;;;;;;;;;2.00;62.89;92841.69;2058491;69;20490;-78
2023/03/01 07:19:05;;;;;;;;;;;;;;;1.97;60.25;92840.00;2058847;69;20534;-78
2023/03/01 07:21:30;;;;;;;;;;;;;;;1.70;59.52;92842.34;2058985;69;20062;-79
2023/03/01 07:23:56;;;;;;;;;;;;;;;1.78;58.65;92843.09;2058817;69;20054;-78
2023/03/01 07:26:21;;;;;;;;;;;;;;;2.01;57.68;92841.13;2059018;69;20048;-80
2023/03/01 07:28:47;;;;;;;;;;;;;;;1.85;57.97;92845.16;2059658;69;20488;-76
2023/03/01 07:31:12;;;;;;;;;;;;;;;2.15;57.19;92838.19;2062156;69;20049;-76
2023/03/01 07:33:38;;;;;;;;;;;;;;;2.33;58.03;92836.34;2061095;69;20046;-78
2023/03/01 07:36:04;;;;;;;;;;;;;;;2.53;57.88;92838.25;2058904;69;20109;-79
2023/03/01 07:38:29;;;;;;;;;;;;;;;2.49;58.10;92844.16;2059109;69;20394;-79
2023/03/01 07:41:00;;;;;;;;;;;;;;;2.65;57.10;92835.81;2055585;69;20513;-77
2023/03/01 07:43:25;;;;;;;;;;;;;;;2.51;56.95;92836.00;2058637;69;20164;-76
2023/03/01 07:45:51;;;;;;;;;;;;;;;2.38;56.84;92827.84;2058071;69;20105;-77
2023/03/01 07:48:17;;;;;;;;;;;;;;;2.66;56.22;92831.75;2058152;69;20053;-76
2023/03/01 07:50:42;;;;;;;;;;;;;;;2.22;55.92;92838.19;2058542;69;20042;-73
2023/03/01 07:53:08;;;;;;;;;;;;;;;2.25;55.70;92828.78;2058652;69;20149;-76
2023/03/01 07:55:33;;;;;;;;;;;;;;;2.36;55.40;92827.66;2058420;69;20081;-74
2023/03/01 07:58:00;;;;;;;;;;;;;;;2.54;55.21;92837.66;2058481;69;20494;-76
2023/03/01 08:00:26;;;;;;;;;;;;;;;2.25;54.96;92831.53;2058010;69;20050;-78
2023/03/01 08:02:51;;;;;;;;;;;;;;;2.14;55.55;92831.16;2058286;69;20046;-78
2023/03/01 08:05:16;;;;;;;;;;;;;;;2.74;53.99;92838.78;2058408;69;20100;-77
2023/03/01 08:07:42;;;;;;;;;;;;;;;2.30;54.47;92843.78;2058397;69;20054;-78
2023/03/01 08:10:08;;;;;;;;;;;;;;;2.64;54.28;92843.41;2058615;69;20124;-78
2023/03/01 08:12:33;;;;;;;;;;;;;;;2.59;54.22;92846.38;2058342;69;20670;-74
2023/03/01 08:14:58;;;;;;;;;;;;;;;2.37;54.45;92850.63;2057805;69;20399;-75
2023/03/01 08:17:24;;;;;;;;;;;;;;;2.91;53.94;92843.03;2057589;69;20046;-77
2023/03/01 08:19:49;;;;;;;;;;;;;;;2.71;53.71;92850.28;2056587;69;20463;-77
2023/03/01 08:22:15;;;;;;;;;;;;;;;2.27;54.57;92837.28;2056871;69;20050;-79
2023/03/01 08:24:41;;;;;;;;;;;;;;;2.22;54.01;92838.19;2056181;69;20054;-78
2023/03/01 08:27:06;;;;;;;;;;;;;;;2.51;54.14;92815.81;2055618;69;20051;-77
2023/03/01 08:29:33;;;;;;;;;;;;;;;3.25;52.56;92831.47;2057850;69;20371;-76
2023/03/01 08:31:58;;;;;;;;;;;;;;;2.93;52.94;92838.41;2058631;69;20050;-77
2023/03/01 08:34:24;;;;;;;;;;;;;;;2.91;52.82;92840.25;2058194;69;20112;-84
2023/03/01 08:36:52;;;;;;;;;;;;;;;3.12;52.41;92835.22;2057988;69;20085;-82
2023/03/01 08:39:19;;;;;;;;;;;;;;;2.81;53.31;92834.53;2058487;69;20113;-84
2023/03/01 08:41:46;;;;;;;;;;;;;;;3.28;52.15;92827.56;2058853;69;20076;-78
2023/03/01 08:44:12;;;;;;;;;;;;;;;3.17;52.09;92820.38;2058619;69;20479;-80
2023/03/01 08:46:40;;;;;;;;;;;;;;;3.80;51.29;92808.44;2058980;69;20053;-85
2023/03/01 08:49:15;;;;;;;;;;;;;;;3.94;52.37;92815.25;2054849;69;20141;-81
2023/03/01 08:51:41;;;;;;;;;;;;;;;4.44;51.74;92817.34;2055050;69;20148;-83
2023/03/01 08:54:11;;;;;;;;;;;;;;;4.79;49.24;92812.63;2055858;69;20134;-84
2023/03/01 08:56:37;;;;;;;;;;;;;;;4.85;50.31;92815.91;2058005;69;20042;-82
2023/03/01 08:59:02;;;;;;;;;;;;;;;5.67;48.70;92811.38;2055484;69;20072;-80
2023/03/01 09:01:28;;;;;;;;;;;;;;;5.33;48.60;92810.81;2059808;69;20054;-80
2023/03/01 09:03:53;;;;;;;;;;;;;;;6.43;47.30;92807.63;2060344;69;20581;-83
2023/03/01 09:06:18;;;;;;;;;;;;;;;5.60;46.68;92804.56;2060953;69;20045;-87
2023/03/01 09:08:45;;;;;;;;;;;;;;;5.79;47.87;92790.00;2060674;69;20565;-80
2023/03/01 09:11:12;;;;;;;;;;;;;;;6.28;46.06;92786.22;2058981;69;20050;-84
2023/03/01 09:13:38;;;;;;;;;;;;;;;6.78;45.01;92785.81;2055859;69;20051;-83
2023/03/01 09:16:04;;;;;;;;;;;;;;;6.96;45.79;92783.63;2055647;69;20047;-81
2023/03/01 09:18:30;;;;;;;;;;;;;;;7.42;43.09;92782.81;2055583;69;20137;-83
2023/03/01 09:21:07;;;;;;;;;;;;;;;6.40;44.50;92777.28;2055539;69;20157;-84
2023/03/01 09:23:38;;;;;;;;;;;;;;;7.35;43.36;92780.91;2055159;69;20502;-81
2023/03/01 09:26:04;;;;;;;;;;;;;;;7.85;43.27;92774.72;2054228;70;20477;-81
2023/03/01 09:28:29;;;;;;;;;;;;;;;8.11;43.01;92764.66;2055082;69;20054;-84
2023/03/01 09:30:57;;;;;;;;;;;;;;;8.49;41.49;92766.63;2056006;70;20057;-86
2023/03/01 09:33:23;;;;;;;;;;;;;;;7.95;41.07;92761.41;2055330;69;20565;-80
2023/03/01 09:35:48;;;;;;;;;;;;;;;9.06;41.41;92767.66;2057325;69;20117;-84
2023/03/01 09:38:14;;;;;;;;;;;;;;;8.65;39.69;92761.38;2055848;69;20180;-80
2023/03/01 09:40:45;;;;;;;;;;;;;;;9.34;39.97;92757.59;2055611;70;20112;-83
2023/03/01 09:43:13;;;;;;;;;;;;;;;8.84;41.64;92750.09;2055433;69;20149;-83
2023/03/01 09:45:42;;;;;;;;;;;;;;;9.13;40.39;92752.72;2055313;69;20050;-80
2023/03/01 09:48:12;;;;;;;;;;;;;;;9.18;39.23;92755.78;2055162;69;20055;-84
2023/03/01 09:50:41;;;;;;;;;;;;;;;9.82;39.00;92753.69;2055455;69;20149;-82
2023/03/01 09:53:11;;;;;;;;;;;;;;;10.48;38.21;92746.53;2055229;69;20165;-81
2023/03/01 09:55:43;;;;;;;;;;;;;;;10.44;36.96;92747.00;2055642;69;20051;-81
2023/03/01 09:58:25;;;;;;;;;;;;;;;10.57;37.65;92743.59;2055850;70;20438;-80
2023/03/01 10:00:50;;;;;;;;;;;;;;;11.41;36.46;92737.31;2055329;70;20130;-82
2023/03/01 10:03:17;;;;;;;;;;;;;;;12.10;36.17;92734.91;2055634;69;20132;-84
2023/03/01 10:06:06;;;;;;;;;;;;;;;11.69;35.11;92741.03;2055442;69;20090;-81
2023/03/01 10:08:38;;;;;;;;;;;;;;;11.05;35.34;92741.53;2055250;69;20125;-89
2023/03/01 10:11:17;;;;;;;;;;;;;;;10.26;37.59;92737.44;2055454;69;20441;-83
2023/03/01 10:13:42;;;;;;;;;;;;;;;12.39;35.82;92731.53;2055411;69;20422;-81
2023/03/01 10:16:21;;;;;;;;;;;;;;;12.45;34.17;92734.69;2055336;69;20054;-84
2023/03/01 10:18:50;;;;;;;;;;;;;;;12.26;33.68;92721.66;2056101;69;20403;-83
2023/03/01 10:21:17;;;;;;;;;;;;;;;12.10;34.33;92721.53;2061353;69;20050;-88
2023/03/01 10:23:43;;;;;;;;;;;;;;;10.41;35.51;92718.03;2060262;69;20056;-87
2023/03/01 10:26:37;;;;;;;;;;;;;;;10.29;35.47;92710.91;2055347;69;20055;-80
2023/03/01 10:29:07;;;;;;;;;;;;;;;11.06;35.05;92703.56;2052050;69;20059;-80
2023/03/01 10:31:50;;;;;;;;;;;;;;;13.69;32.35;92707.22;2055492;69;20050;-82
2023/03/01 10:34:15;;;;;;;;;;;;;;;14.49;30.26;92706.09;2057662;69;20089;-86
2023/03/01 10:36:41;;;;;;;;;;;;;;;13.64;30.44;92693.50;2057352;69;20191;-80
2023/03/01 10:39:14;;;;;;;;;;;;;;;12.34;32.94;92699.53;2055812;69;20060;-82
2023/03/01 10:41:51;;;;;;;;;;;;;;;13.57;31.14;92683.25;2055333;69;20074;-80
2023/03/01 10:44:34;;;;;;;;;;;;;;;14.45;29.07;92685.31;2055318;69;20093;-80
2023/03/01 10:47:01;;;;;;;;;;;;;;;14.91;29.90;92674.66;2055219;69;20130;-81
2023/03/01 10:49:26;;;;;;;;;;;;;;;14.91;28.89;92654.81;2055351;69;20054;-81
2023/03/01 10:51:53;;;;;;;;;;;;;;;15.92;27.74;92654.84;2055182;70;20125;-82
2023/03/01 10:54:18;;;;;;;;;;;;;;;14.51;29.88;92648.06;2055201;69;20057;-79
2023/03/01 10:56:48;;;;;;;;;;;;;;;13.68;30.02;92635.03;2055411;69;20078;-82
2023/03/01 10:59:32;;;;;;;;;;;;;;;12.97;30.47;92623.03;2055309;69;20081;-80
2023/03/01 11:02:13;;;;;;;;;;;;;;;15.93;28.50;92622.22;2055036;69;20152;-85
2023/03/01 11:04:39;;;;;;;;;;;;;;;17.76;27.55;92622.50;2055645;70;20408;-81
2023/03/01 11:07:04;;;;;;;;;;;;;;;17.89;26.36;92620.78;2055462;69;20125;-83
2023/03/01 11:09:42;;;;;;;;;;;;;;;16.11;26.25;92614.41;2054855;70;20473;-78
2023/03/01 11:12:14;;;;;;;;;;;;;;;18.76;26.25;92625.63;2054705;70;20057;-77
2023/03/01 11:14:46;;;;;;;;;;;;;;;21.06;22.95;92619.25;2055352;69;20054;-84
2023/03/01 11:17:14;;;;;;;;;;;;;;;20.53;23.96;92618.13;2055667;70;20054;-84
2023/03/01 11:19:40;;;;;;;;;;;;;;;20.30;22.81;92619.72;2055450;69;20134;-80
2023/03/01 11:22:14;;;;;;;;;;;;;;;20.49;23.56;92606.59;2054827;70;20052;-85
2023/03/01 11:24:45;;;;;;;;;;;;;;;21.37;22.55;92600.56;2055717;69;20168;-85
2023/03/01 11:27:16;;;;;;;;;;;;;;;25.42;19.29;92609.63;2055767;69;20490;-84
2023/03/01 11:29:45;;;;;;;;;;;;;;;24.00;20.01;92601.47;2056146;70;20062;-84
2023/03/01 11:32:13;;;;;;;;;;;;;;;22.39;19.51;92593.72;2056648;69;20085;-83
2023/03/01 11:34:48;;;;;;;;;;;;;;;22.23;20.05;92582.75;2056114;69;20086;-83
2023/03/01 11:37:35;;;;;;;;;;;;;;;25.65;19.16;92592.44;2055215;70;20054;-82
2023/03/01 11:40:12;;;;;;;;;;;;;;;23.85;19.93;92571.16;2056459;69;20046;-81
2023/03/01 11:42:53;;;;;;;;;;;;;;;26.45;18.20;92573.84;2056012;69;20142;-83
2023/03/01 11:45:21;;;;;;;;;;;;;;;27.32;16.91;92575.84;2055889;69;20104;-85
2023/03/01 11:47:49;;;;;;;;;;;;;;;24.51;18.08;92564.53;2055822;69;20054;-85
2023/03/01 11:50:28;;;;;;;;;;;;;;;25.43;17.93;92565.00;2056155;69;20050;-84
2023/03/01 11:53:17;;;;;;;;;;;;;;;26.99;17.53;92545.59;2055926;69;20150;-85
2023/03/01 11:55:55;;;;;;;;;;;;;;;26.85;16.24;92549.97;2055469;70;20053;-84
2023/03/01 11:58:27;;;;;;;;;;;;;;;28.29;16.90;92550.72;2056537;70;20061;-84
2023/03/01 12:01:15;;;;;;;;;;;;;;;25.23;18.05;92533.94;2055590;70;20117;-81
2023/03/01 12:03:44;;;;;;;;;;;;;;;28.74;16.30;92529.34;2053995;69;20584;-86
2023/03/01 12:06:24;;;;;;;;;;;;;;;26.37;17.30;92527.63;2055926;69;20125;-85
2023/03/01 12:09:05;;;;;;;;;;;;;;;26.34;16.22;92526.19;2055908;69;20093;-85
2023/03/01 12:11:39;;;;;;;;;;;;;;;27.26;16.49;92514.44;2056692;70;20050;-86
2023/03/01 12:14:05;;;;;;;;;;;;;;;27.45;16.21;92515.81;2056553;69;20051;-85
2023/03/01 12:16:36;;;;;;;;;;;;;;;29.65;15.09;92521.81;2057589;69;20053;-85
2023/03/01 12:19:05;;;;;;;;;;;;;;;28.53;15.89;92511.44;2056833;69;20399;-84
2023/03/01 12:21:57;;;;;;;;;;;;;;;29.19;14.21;92511.50;2056528;69;20050;-85
2023/03/01 12:24:28;;;;;;;;;;;;;;;26.22;16.75;92491.59;2056714;69;20115;-79
2023/03/01 12:27:18;;;;;;;;;;;;;;;23.25;18.33;92503.75;2055713;69;20141;-82
2023/03/01 12:29:46;;;;;;;;;;;;;;;22.57;18.89;92502.19;2055205;69;20153;-80
2023/03/01 12:32:19;;;;;;;;;;;;;;;21.43;19.92;92496.88;2055996;70;20116;-83
2023/03/01 12:35:01;;;;;;;;;;;;;;;19.35;20.96;92492.41;2056508;69;20497;-84
2023/03/01 12:37:35;;;;;;;;;;;;;;;18.11;23.19;92486.91;2056142;69;20058;-83
2023/03/01 12:40:20;;;;;;;;;;;;;;;16.41;25.19;92492.00;2055538;70;20054;-79
2023/03/01 12:42:51;;;;;;;;;;;;;;;17.35;24.60;92489.50;2056436;69;20101;-82
2023/03/01 12:45:17;;;;;;;;;;;;;;;16.20;25.79;92488.41;2056945;69;20072;-82
2023/03/01 12:48:01;;;;;;;;;;;;;;;14.85;27.00;92485.25;2055406;69;20046;-79
2023/03/01 12:50:35;;;;;;;;;;;;;;;15.05;27.66;92481.78;2056048;69;20046;-81
2023/03/01 12:53:02;;;;;;;;;;;;;;;14.07;28.67;92486.13;2055726;69;20085;-82
2023/03/01 12:55:36;;;;;;;;;;;;;;;15.41;27.96;92469.06;2055455;70;20082;-83
2023/03/01 12:58:21;;;;;;;;;;;;;;;18.50;25.22;92472.34;2056256;69;20050;-85
2023/03/01 13:01:01;;;;;;;;;;;;;;;19.58;23.66;92485.84;2055623;69;20442;-84
2023/03/01 13:03:30;;;;;;;;;;;;;;;17.44;25.01;92479.84;2055320;70;20437;-79